Terminal Aerodrome Forecast
Issued by NWS Wilmington, NC

Home | Current Version | Previous Version | Text Only | Print | Product List | Glossary On
Versions: 1 2 3 4 5 6 7 8 9 10 11 12 13 14
000
FTUS42 KILM 170530 CCA
TAFFLO
TAF COR
KFLO 170530Z 1706/1806 VRB03KT P6SM FEW200
      TEMPO 1710/1712 4SM BR
     FM172100 29004KT P6SM BKN080
     FM172300 20004KT P6SM BKN070=

USA.gov is the U.S. government's official web portal to all federal, state and local government web resources and services.